sensor_id;sensor_type;location;lat;lon;timestamp;P1;durP1;ratioP1;P2;durP2;ratioP2
7875;SDS011;3983;51.930;12.596;2023-04-24T00:01:48;12.93;;;8.73;;
7875;SDS011;3983;51.930;12.596;2023-04-24T00:04:14;12.07;;;9.33;;
7875;SDS011;3983;51.930;12.596;2023-04-24T00:06:42;13.47;;;8.87;;
7875;SDS011;3983;51.930;12.596;2023-04-24T00:09:09;11.67;;;9.07;;
7875;SDS011;3983;51.930;12.596;2023-04-24T00:11:35;13.60;;;10.00;;
7875;SDS011;3983;51.930;12.596;2023-04-24T00:14:01;11.60;;;10.30;;
7875;SDS011;3983;51.930;12.596;2023-04-24T00:16:27;11.33;;;10.13;;
7875;SDS011;3983;51.930;12.596;2023-04-24T00:18:53;10.70;;;9.30;;
7875;SDS011;3983;51.930;12.596;2023-04-24T00:21:19;11.27;;;9.03;;
7875;SDS011;3983;51.930;12.596;2023-04-24T00:23:47;10.67;;;9.17;;
7875;SDS011;3983;51.930;12.596;2023-04-24T00:26:13;10.20;;;9.10;;
7875;SDS011;3983;51.930;12.596;2023-04-24T00:28:39;12.37;;;9.77;;
7875;SDS011;3983;51.930;12.596;2023-04-24T00:31:05;12.50;;;9.80;;
7875;SDS011;3983;51.930;12.596;2023-04-24T00:33:31;11.50;;;9.57;;
7875;SDS011;3983;51.930;12.596;2023-04-24T00:35:56;11.20;;;10.13;;
7875;SDS011;3983;51.930;12.596;2023-04-24T00:38:23;12.13;;;9.23;;
7875;SDS011;3983;51.930;12.596;2023-04-24T00:40:48;10.10;;;8.87;;
7875;SDS011;3983;51.930;12.596;2023-04-24T00:43:15;13.40;;;8.97;;
7875;SDS011;3983;51.930;12.596;2023-04-24T00:45:42;10.40;;;8.47;;
7875;SDS011;3983;51.930;12.596;2023-04-24T00:48:08;9.97;;;8.40;;
7875;SDS011;3983;51.930;12.596;2023-04-24T00:50:35;10.60;;;9.60;;
7875;SDS011;3983;51.930;12.596;2023-04-24T00:53:02;10.90;;;9.50;;
7875;SDS011;3983;51.930;12.596;2023-04-24T00:55:27;12.60;;;9.37;;
7875;SDS011;3983;51.930;12.596;2023-04-24T00:57:54;11.13;;;8.77;;
7875;SDS011;3983;51.930;12.596;2023-04-24T01:00:20;10.10;;;8.83;;
7875;SDS011;3983;51.930;12.596;2023-04-24T01:02:46;11.37;;;8.60;;
7875;SDS011;3983;51.930;12.596;2023-04-24T01:05:13;11.87;;;9.50;;
7875;SDS011;3983;51.930;12.596;2023-04-24T01:07:45;11.20;;;8.47;;
7875;SDS011;3983;51.930;12.596;2023-04-24T01:10:11;12.30;;;9.90;;
7875;SDS011;3983;51.930;12.596;2023-04-24T01:12:38;10.47;;;8.60;;
7875;SDS011;3983;51.930;12.596;2023-04-24T01:15:04;12.53;;;10.17;;
7875;SDS011;3983;51.930;12.596;2023-04-24T01:17:32;10.57;;;9.47;;
7875;SDS011;3983;51.930;12.596;2023-04-24T01:19:59;10.90;;;9.80;;
7875;SDS011;3983;51.930;12.596;2023-04-24T01:22:26;9.77;;;8.03;;
7875;SDS011;3983;51.930;12.596;2023-04-24T01:24:52;13.43;;;10.30;;
7875;SDS011;3983;51.930;12.596;2023-04-24T01:27:19;9.10;;;8.03;;
7875;SDS011;3983;51.930;12.596;2023-04-24T01:29:45;11.90;;;8.90;;
7875;SDS011;3983;51.930;12.596;2023-04-24T01:32:14;7.50;;;6.80;;
7875;SDS011;3983;51.930;12.596;2023-04-24T01:34:40;9.57;;;8.60;;
7875;SDS011;3983;51.930;12.596;2023-04-24T01:37:06;8.80;;;7.87;;
7875;SDS011;3983;51.930;12.596;2023-04-24T01:39:32;9.30;;;8.00;;
7875;SDS011;3983;51.930;12.596;2023-04-24T01:41:59;8.07;;;7.27;;
7875;SDS011;3983;51.930;12.596;2023-04-24T01:44:26;8.30;;;7.37;;
7875;SDS011;3983;51.930;12.596;2023-04-24T01:46:52;7.37;;;6.67;;
7875;SDS011;3983;51.930;12.596;2023-04-24T01:49:19;7.50;;;6.70;;
7875;SDS011;3983;51.930;12.596;2023-04-24T01:51:45;7.07;;;6.40;;
7875;SDS011;3983;51.930;12.596;2023-04-24T01:54:12;8.17;;;6.57;;
7875;SDS011;3983;51.930;12.596;2023-04-24T01:56:40;8.57;;;6.80;;
7875;SDS011;3983;51.930;12.596;2023-04-24T01:59:07;7.17;;;6.47;;
7875;SDS011;3983;51.930;12.596;2023-04-24T02:01:36;6.53;;;5.93;;
7875;SDS011;3983;51.930;12.596;2023-04-24T02:04:03;8.10;;;6.90;;
7875;SDS011;3983;51.930;12.596;2023-04-24T02:06:30;5.47;;;4.97;;
7875;SDS011;3983;51.930;12.596;2023-04-24T02:08:57;5.30;;;4.63;;
7875;SDS011;3983;51.930;12.596;2023-04-24T02:11:24;5.90;;;5.40;;
7875;SDS011;3983;51.930;12.596;2023-04-24T02:13:50;6.13;;;5.53;;
7875;SDS011;3983;51.930;12.596;2023-04-24T02:16:17;5.77;;;5.17;;
7875;SDS011;3983;51.930;12.596;2023-04-24T02:18:43;4.87;;;4.47;;
7875;SDS011;3983;51.930;12.596;2023-04-24T02:21:09;5.50;;;4.87;;
7875;SDS011;3983;51.930;12.596;2023-04-24T02:23:36;5.13;;;4.63;;
7875;SDS011;3983;51.930;12.596;2023-04-24T02:26:02;4.87;;;4.47;;
7875;SDS011;3983;51.930;12.596;2023-04-24T02:28:27;6.27;;;5.10;;
7875;SDS011;3983;51.930;12.596;2023-04-24T02:30:53;5.03;;;4.53;;
7875;SDS011;3983;51.930;12.596;2023-04-24T02:33:19;5.73;;;5.23;;
7875;SDS011;3983;51.930;12.596;2023-04-24T02:35:45;4.97;;;4.07;;
7875;SDS011;3983;51.930;12.596;2023-04-24T02:38:11;5.23;;;4.73;;
7875;SDS011;3983;51.930;12.596;2023-04-24T02:40:37;5.00;;;4.50;;
7875;SDS011;3983;51.930;12.596;2023-04-24T02:43:03;4.37;;;3.97;;
7875;SDS011;3983;51.930;12.596;2023-04-24T02:45:28;4.47;;;4.07;;
7875;SDS011;3983;51.930;12.596;2023-04-24T02:47:54;3.77;;;3.43;;
7875;SDS011;3983;51.930;12.596;2023-04-24T02:50:20;4.60;;;4.20;;
7875;SDS011;3983;51.930;12.596;2023-04-24T02:52:46;4.93;;;3.93;;
7875;SDS011;3983;51.930;12.596;2023-04-24T02:55:12;5.00;;;4.60;;
7875;SDS011;3983;51.930;12.596;2023-04-24T02:57:39;4.30;;;3.90;;
7875;SDS011;3983;51.930;12.596;2023-04-24T03:00:05;4.53;;;4.13;;
7875;SDS011;3983;51.930;12.596;2023-04-24T03:02:32;4.23;;;3.93;;
7875;SDS011;3983;51.930;12.596;2023-04-24T03:04:59;2.87;;;2.67;;
7875;SDS011;3983;51.930;12.596;2023-04-24T03:07:25;3.73;;;3.40;;
7875;SDS011;3983;51.930;12.596;2023-04-24T03:09:50;4.27;;;3.83;;
7875;SDS011;3983;51.930;12.596;2023-04-24T03:12:16;4.07;;;3.77;;
7875;SDS011;3983;51.930;12.596;2023-04-24T03:14:43;3.50;;;3.20;;
7875;SDS011;3983;51.930;12.596;2023-04-24T03:17:09;4.30;;;3.90;;
7875;SDS011;3983;51.930;12.596;2023-04-24T03:19:35;6.63;;;3.43;;
7875;SDS011;3983;51.930;12.596;2023-04-24T03:22:02;3.80;;;3.40;;
7875;SDS011;3983;51.930;12.596;2023-04-24T03:24:28;3.50;;;3.20;;
7875;SDS011;3983;51.930;12.596;2023-04-24T03:26:54;3.67;;;3.37;;
7875;SDS011;3983;51.930;12.596;2023-04-24T03:29:21;3.90;;;3.40;;
7875;SDS011;3983;51.930;12.596;2023-04-24T03:31:47;4.07;;;3.67;;
7875;SDS011;3983;51.930;12.596;2023-04-24T03:34:13;4.37;;;4.07;;
7875;SDS011;3983;51.930;12.596;2023-04-24T03:36:38;3.47;;;3.10;;
7875;SDS011;3983;51.930;12.596;2023-04-24T03:39:04;3.47;;;3.17;;
7875;SDS011;3983;51.930;12.596;2023-04-24T03:41:31;3.30;;;3.10;;
7875;SDS011;3983;51.930;12.596;2023-04-24T03:43:56;3.80;;;2.70;;
7875;SDS011;3983;51.930;12.596;2023-04-24T03:46:22;3.50;;;3.17;;
7875;SDS011;3983;51.930;12.596;2023-04-24T03:48:48;3.20;;;2.70;;
7875;SDS011;3983;51.930;12.596;2023-04-24T03:51:14;4.47;;;3.00;;
7875;SDS011;3983;51.930;12.596;2023-04-24T03:53:39;3.13;;;2.83;;
7875;SDS011;3983;51.930;12.596;2023-04-24T03:56:05;3.33;;;3.13;;
7875;SDS011;3983;51.930;12.596;2023-04-24T03:58:31;3.10;;;2.90;;
7875;SDS011;3983;51.930;12.596;2023-04-24T04:00:57;3.10;;;2.90;;
7875;SDS011;3983;51.930;12.596;2023-04-24T04:03:23;3.87;;;3.57;;
7875;SDS011;3983;51.930;12.596;2023-04-24T04:05:50;3.00;;;2.80;;
7875;SDS011;3983;51.930;12.596;2023-04-24T04:08:16;3.60;;;3.30;;
7875;SDS011;3983;51.930;12.596;2023-04-24T04:10:42;3.10;;;2.90;;
7875;SDS011;3983;51.930;12.596;2023-04-24T04:13:08;3.00;;;2.70;;
7875;SDS011;3983;51.930;12.596;2023-04-24T04:15:33;3.30;;;3.10;;
7875;SDS011;3983;51.930;12.596;2023-04-24T04:17:59;3.40;;;3.10;;
7875;SDS011;3983;51.930;12.596;2023-04-24T04:20:25;3.83;;;3.53;;
7875;SDS011;3983;51.930;12.596;2023-04-24T04:22:51;3.53;;;3.33;;
7875;SDS011;3983;51.930;12.596;2023-04-24T04:25:17;3.60;;;3.30;;
7875;SDS011;3983;51.930;12.596;2023-04-24T04:27:45;3.00;;;2.80;;
7875;SDS011;3983;51.930;12.596;2023-04-24T04:30:13;3.60;;;3.30;;
7875;SDS011;3983;51.930;12.596;2023-04-24T04:32:39;3.33;;;3.13;;
7875;SDS011;3983;51.930;12.596;2023-04-24T04:35:07;4.10;;;3.80;;
7875;SDS011;3983;51.930;12.596;2023-04-24T04:37:39;3.43;;;3.13;;
7875;SDS011;3983;51.930;12.596;2023-04-24T04:40:05;3.47;;;3.17;;
7875;SDS011;3983;51.930;12.596;2023-04-24T04:42:32;3.10;;;2.90;;
7875;SDS011;3983;51.930;12.596;2023-04-24T04:45:03;4.00;;;3.40;;
7875;SDS011;3983;51.930;12.596;2023-04-24T04:47:30;3.10;;;2.90;;
7875;SDS011;3983;51.930;12.596;2023-04-24T04:49:57;3.20;;;3.00;;
7875;SDS011;3983;51.930;12.596;2023-04-24T04:52:23;3.57;;;3.27;;
7875;SDS011;3983;51.930;12.596;2023-04-24T04:54:50;3.43;;;3.10;;
7875;SDS011;3983;51.930;12.596;2023-04-24T04:57:16;4.07;;;3.23;;
7875;SDS011;3983;51.930;12.596;2023-04-24T04:59:42;4.50;;;2.90;;
7875;SDS011;3983;51.930;12.596;2023-04-24T05:02:07;3.23;;;2.20;;
7875;SDS011;3983;51.930;12.596;2023-04-24T05:04:34;3.50;;;3.20;;
7875;SDS011;3983;51.930;12.596;2023-04-24T05:07:00;4.17;;;3.17;;
7875;SDS011;3983;51.930;12.596;2023-04-24T05:09:26;3.50;;;3.20;;
7875;SDS011;3983;51.930;12.596;2023-04-24T05:11:52;2.80;;;2.47;;
7875;SDS011;3983;51.930;12.596;2023-04-24T05:14:19;3.47;;;3.17;;
7875;SDS011;3983;51.930;12.596;2023-04-24T05:16:44;2.67;;;2.47;;
7875;SDS011;3983;51.930;12.596;2023-04-24T05:19:10;2.70;;;2.50;;
7875;SDS011;3983;51.930;12.596;2023-04-24T05:21:37;2.30;;;2.13;;
7875;SDS011;3983;51.930;12.596;2023-04-24T05:24:04;3.97;;;3.00;;
7875;SDS011;3983;51.930;12.596;2023-04-24T05:26:31;2.80;;;2.60;;
7875;SDS011;3983;51.930;12.596;2023-04-24T05:28:57;2.70;;;2.50;;
7875;SDS011;3983;51.930;12.596;2023-04-24T05:31:23;3.53;;;3.23;;
7875;SDS011;3983;51.930;12.596;2023-04-24T05:33:48;2.33;;;2.13;;
7875;SDS011;3983;51.930;12.596;2023-04-24T05:36:14;2.33;;;2.13;;
7875;SDS011;3983;51.930;12.596;2023-04-24T05:38:40;2.27;;;2.17;;
7875;SDS011;3983;51.930;12.596;2023-04-24T05:41:06;2.87;;;2.17;;
7875;SDS011;3983;51.930;12.596;2023-04-24T05:43:32;2.60;;;2.40;;
7875;SDS011;3983;51.930;12.596;2023-04-24T05:45:58;3.80;;;2.43;;
7875;SDS011;3983;51.930;12.596;2023-04-24T05:48:24;4.73;;;2.53;;
7875;SDS011;3983;51.930;12.596;2023-04-24T05:50:50;3.47;;;2.03;;
7875;SDS011;3983;51.930;12.596;2023-04-24T05:53:16;2.97;;;2.77;;
7875;SDS011;3983;51.930;12.596;2023-04-24T05:55:41;2.33;;;2.13;;
7875;SDS011;3983;51.930;12.596;2023-04-24T05:58:07;3.07;;;2.67;;
7875;SDS011;3983;51.930;12.596;2023-04-24T06:00:34;2.97;;;2.63;;
7875;SDS011;3983;51.930;12.596;2023-04-24T06:03:00;2.97;;;2.00;;
7875;SDS011;3983;51.930;12.596;2023-04-24T06:05:26;1.90;;;1.80;;
7875;SDS011;3983;51.930;12.596;2023-04-24T06:07:52;2.67;;;2.47;;
7875;SDS011;3983;51.930;12.596;2023-04-24T06:10:18;3.30;;;3.00;;
7875;SDS011;3983;51.930;12.596;2023-04-24T06:12:44;2.80;;;2.60;;
7875;SDS011;3983;51.930;12.596;2023-04-24T06:15:10;2.10;;;1.90;;
7875;SDS011;3983;51.930;12.596;2023-04-24T06:17:36;4.77;;;2.70;;
7875;SDS011;3983;51.930;12.596;2023-04-24T06:20:01;2.80;;;2.60;;
7875;SDS011;3983;51.930;12.596;2023-04-24T06:22:29;3.17;;;2.87;;
7875;SDS011;3983;51.930;12.596;2023-04-24T06:24:55;2.23;;;2.13;;
7875;SDS011;3983;51.930;12.596;2023-04-24T06:27:21;2.90;;;2.53;;
7875;SDS011;3983;51.930;12.596;2023-04-24T06:29:47;4.30;;;2.53;;
7875;SDS011;3983;51.930;12.596;2023-04-24T06:32:14;2.53;;;2.33;;
7875;SDS011;3983;51.930;12.596;2023-04-24T06:34:40;3.03;;;2.53;;
7875;SDS011;3983;51.930;12.596;2023-04-24T06:37:07;3.07;;;2.87;;
7875;SDS011;3983;51.930;12.596;2023-04-24T06:39:33;2.93;;;2.73;;
7875;SDS011;3983;51.930;12.596;2023-04-24T06:41:59;2.10;;;2.00;;
7875;SDS011;3983;51.930;12.596;2023-04-24T06:44:25;3.07;;;2.80;;
7875;SDS011;3983;51.930;12.596;2023-04-24T06:46:51;4.30;;;2.90;;
7875;SDS011;3983;51.930;12.596;2023-04-24T06:49:16;2.80;;;2.57;;
7875;SDS011;3983;51.930;12.596;2023-04-24T06:51:42;2.60;;;2.40;;
7875;SDS011;3983;51.930;12.596;2023-04-24T06:54:08;2.50;;;2.30;;
7875;SDS011;3983;51.930;12.596;2023-04-24T06:56:34;3.50;;;3.07;;
7875;SDS011;69649;53.712;9.680;2023-04-24T06:59:00;3.17;;;2.87;;
7875;SDS011;69649;53.712;9.680;2023-04-24T07:01:26;4.47;;;3.53;;
7875;SDS011;69649;53.712;9.680;2023-04-24T07:03:52;3.70;;;3.40;;
7875;SDS011;69649;53.712;9.680;2023-04-24T07:06:18;2.43;;;2.23;;
7875;SDS011;69649;53.712;9.680;2023-04-24T07:08:46;3.57;;;3.30;;
7875;SDS011;69649;53.712;9.680;2023-04-24T07:11:11;2.90;;;2.70;;
7875;SDS011;69649;53.712;9.680;2023-04-24T07:13:37;2.63;;;2.43;;
7875;SDS011;69649;53.712;9.680;2023-04-24T07:16:05;3.13;;;2.80;;
7875;SDS011;69649;53.712;9.680;2023-04-24T07:18:30;4.67;;;4.20;;
7875;SDS011;69649;53.712;9.680;2023-04-24T07:20:56;2.60;;;2.40;;
7875;SDS011;69649;53.712;9.680;2023-04-24T07:23:22;3.40;;;3.10;;
7875;SDS011;69649;53.712;9.680;2023-04-24T07:25:48;3.87;;;3.33;;
7875;SDS011;69649;53.712;9.680;2023-04-24T07:28:13;3.00;;;2.63;;
7875;SDS011;69649;53.712;9.680;2023-04-24T07:30:39;3.90;;;3.60;;
7875;SDS011;69649;53.712;9.680;2023-04-24T07:33:05;3.63;;;3.33;;
7875;SDS011;69649;53.712;9.680;2023-04-24T07:35:32;4.60;;;4.00;;
7875;SDS011;69649;53.712;9.680;2023-04-24T07:37:58;3.47;;;3.17;;
7875;SDS011;69649;53.712;9.680;2023-04-24T07:40:24;3.57;;;2.80;;
7875;SDS011;69649;53.712;9.680;2023-04-24T07:42:50;3.67;;;3.40;;
7875;SDS011;69649;53.712;9.680;2023-04-24T07:45:16;4.37;;;3.93;;
7875;SDS011;69649;53.712;9.680;2023-04-24T07:47:42;3.80;;;3.50;;
7875;SDS011;69649;53.712;9.680;2023-04-24T07:50:09;4.33;;;4.00;;
7875;SDS011;69649;53.712;9.680;2023-04-24T07:52:35;3.43;;;3.23;;
7875;SDS011;69649;53.712;9.680;2023-04-24T07:55:01;3.13;;;2.93;;
7875;SDS011;69649;53.712;9.680;2023-04-24T07:57:27;4.43;;;4.03;;
7875;SDS011;69649;53.712;9.680;2023-04-24T07:59:54;4.93;;;4.53;;
7875;SDS011;69649;53.712;9.680;2023-04-24T08:02:20;5.67;;;4.40;;
7875;SDS011;69649;53.712;9.680;2023-04-24T08:04:48;5.43;;;5.00;;
7875;SDS011;69649;53.712;9.680;2023-04-24T08:07:14;4.70;;;4.40;;
7875;SDS011;69649;53.712;9.680;2023-04-24T08:09:40;4.63;;;3.97;;
7875;SDS011;69649;53.712;9.680;2023-04-24T08:12:06;6.07;;;5.40;;
7875;SDS011;69649;53.712;9.680;2023-04-24T08:14:31;8.53;;;5.20;;
7875;SDS011;69649;53.712;9.680;2023-04-24T08:16:57;4.43;;;4.03;;
7875;SDS011;69649;53.712;9.680;2023-04-24T08:19:25;5.30;;;4.40;;
7875;SDS011;69649;53.712;9.680;2023-04-24T08:21:51;6.00;;;3.73;;
7875;SDS011;69649;53.712;9.680;2023-04-24T08:26:56;6.23;;;4.43;;
7875;SDS011;69649;53.712;9.680;2023-04-24T08:29:23;5.13;;;4.73;;
7875;SDS011;69649;53.712;9.680;2023-04-24T08:31:49;5.80;;;4.47;;
7875;SDS011;69649;53.712;9.680;2023-04-24T08:34:15;4.83;;;4.07;;
7875;SDS011;69649;53.712;9.680;2023-04-24T08:36:41;5.23;;;4.40;;
7875;SDS011;69649;53.712;9.680;2023-04-24T08:39:07;4.60;;;4.20;;
7875;SDS011;69649;53.712;9.680;2023-04-24T08:41:33;3.97;;;3.67;;
7875;SDS011;69649;53.712;9.680;2023-04-24T08:44:00;5.20;;;4.37;;
7875;SDS011;69649;53.712;9.680;2023-04-24T08:46:27;5.47;;;4.87;;
7875;SDS011;69649;53.712;9.680;2023-04-24T08:48:55;5.77;;;4.47;;
7875;SDS011;69649;53.712;9.680;2023-04-24T08:51:21;6.90;;;5.47;;
7875;SDS011;69649;53.712;9.680;2023-04-24T08:53:48;6.80;;;5.77;;
7875;SDS011;69649;53.712;9.680;2023-04-24T08:56:14;5.40;;;3.80;;
7875;SDS011;69649;53.712;9.680;2023-04-24T08:58:41;7.43;;;5.17;;
7875;SDS011;69649;53.712;9.680;2023-04-24T09:01:08;6.40;;;4.90;;
7875;SDS011;69649;53.712;9.680;2023-04-24T09:03:34;5.97;;;5.30;;
7875;SDS011;69649;53.712;9.680;2023-04-24T09:06:01;7.37;;;6.57;;
7875;SDS011;69649;53.712;9.680;2023-04-24T09:08:28;7.83;;;7.03;;
7875;SDS011;69649;53.712;9.680;2023-04-24T09:10:55;7.40;;;6.77;;
7875;SDS011;69649;53.712;9.680;2023-04-24T09:13:22;7.37;;;6.73;;
7875;SDS011;69649;53.712;9.680;2023-04-24T09:15:50;6.67;;;5.97;;
7875;SDS011;69649;53.712;9.680;2023-04-24T09:18:17;7.13;;;5.50;;
7875;SDS011;69649;53.712;9.680;2023-04-24T09:23:31;7.17;;;6.53;;
7875;SDS011;69649;53.712;9.680;2023-04-24T09:25:58;6.00;;;5.40;;
7875;SDS011;69649;53.712;9.680;2023-04-24T09:28:32;6.97;;;6.37;;
7875;SDS011;69649;53.712;9.680;2023-04-24T09:31:07;6.90;;;5.50;;
7875;SDS011;69649;53.712;9.680;2023-04-24T09:33:34;7.97;;;6.80;;
7875;SDS011;69649;53.712;9.680;2023-04-24T09:36:01;11.87;;;6.63;;
7875;SDS011;69649;53.712;9.680;2023-04-24T09:38:32;7.27;;;6.10;;
7875;SDS011;69649;53.712;9.680;2023-04-24T09:41:00;4.83;;;4.37;;
7875;SDS011;69649;53.712;9.680;2023-04-24T09:43:34;7.00;;;6.40;;
7875;SDS011;69649;53.712;9.680;2023-04-24T09:46:04;4.77;;;4.37;;
7875;SDS011;69649;53.712;9.680;2023-04-24T09:48:33;7.17;;;6.43;;
7875;SDS011;69649;53.712;9.680;2023-04-24T09:51:02;6.60;;;6.00;;
7875;SDS011;69649;53.712;9.680;2023-04-24T09:53:29;6.93;;;6.23;;
7875;SDS011;69649;53.712;9.680;2023-04-24T09:55:56;6.60;;;6.00;;
7875;SDS011;69649;53.712;9.680;2023-04-24T09:58:35;7.83;;;5.13;;
7875;SDS011;69649;53.712;9.680;2023-04-24T10:01:01;5.93;;;5.33;;
7875;SDS011;69649;53.712;9.680;2023-04-24T10:03:31;6.07;;;5.47;;
7875;SDS011;69649;53.712;9.680;2023-04-24T10:06:00;6.23;;;5.30;;
7875;SDS011;69649;53.712;9.680;2023-04-24T10:08:27;7.27;;;6.63;;
7875;SDS011;69649;53.712;9.680;2023-04-24T10:11:01;6.37;;;5.60;;
7875;SDS011;69649;53.712;9.680;2023-04-24T10:13:27;6.93;;;6.20;;
7875;SDS011;69649;53.712;9.680;2023-04-24T10:15:54;7.23;;;6.63;;
7875;SDS011;69649;53.712;9.680;2023-04-24T10:18:21;9.87;;;4.50;;
7875;SDS011;69649;53.712;9.680;2023-04-24T10:20:49;8.17;;;5.03;;
7875;SDS011;69649;53.712;9.680;2023-04-24T10:23:15;8.10;;;6.33;;
7875;SDS011;69649;53.712;9.680;2023-04-24T10:25:43;6.93;;;6.23;;
7875;SDS011;69649;53.712;9.680;2023-04-24T10:28:10;11.10;;;7.07;;
7875;SDS011;69649;53.712;9.680;2023-04-24T10:30:37;7.40;;;6.57;;
7875;SDS011;69649;53.712;9.680;2023-04-24T10:33:07;6.90;;;6.20;;
7875;SDS011;69649;53.712;9.680;2023-04-24T10:35:34;7.50;;;6.50;;
7875;SDS011;69649;53.712;9.680;2023-04-24T10:38:05;8.97;;;6.33;;
7875;SDS011;69649;53.712;9.680;2023-04-24T10:40:33;9.33;;;7.10;;
7875;SDS011;69649;53.712;9.680;2023-04-24T10:43:06;7.33;;;6.30;;
7875;SDS011;69649;53.712;9.680;2023-04-24T10:45:35;9.93;;;7.17;;
7875;SDS011;69649;53.712;9.680;2023-04-24T10:48:01;7.13;;;6.43;;
7875;SDS011;69649;53.712;9.680;2023-04-24T10:50:44;8.20;;;7.50;;
7875;SDS011;69649;53.712;9.680;2023-04-24T10:53:19;7.33;;;6.57;;
7875;SDS011;69649;53.712;9.680;2023-04-24T10:56:02;12.60;;;6.77;;
7875;SDS011;69649;53.712;9.680;2023-04-24T11:01:06;8.80;;;7.87;;
7875;SDS011;69649;53.712;9.680;2023-04-24T11:03:33;9.73;;;8.43;;
7875;SDS011;69649;53.712;9.680;2023-04-24T11:06:07;14.27;;;9.93;;
7875;SDS011;69649;53.712;9.680;2023-04-24T11:08:38;12.47;;;10.07;;
7875;SDS011;69649;53.712;9.680;2023-04-24T11:27:21;12.97;;;9.90;;
7875;SDS011;69649;53.712;9.680;2023-04-24T11:32:27;9.27;;;8.03;;
7875;SDS011;69649;53.712;9.680;2023-04-24T11:34:56;18.20;;;10.40;;
7875;SDS011;69649;53.712;9.680;2023-04-24T11:37:37;10.87;;;8.60;;
7875;SDS011;69649;53.712;9.680;2023-04-24T11:40:04;13.77;;;12.13;;
7875;SDS011;69649;53.712;9.680;2023-04-24T11:42:36;13.97;;;11.23;;
7875;SDS011;69649;53.712;9.680;2023-04-24T11:45:07;16.17;;;10.60;;
7875;SDS011;69649;53.712;9.680;2023-04-24T11:47:40;13.13;;;10.80;;
7875;SDS011;69649;53.712;9.680;2023-04-24T11:50:08;10.07;;;7.80;;
7875;SDS011;69649;53.712;9.680;2023-04-24T11:52:38;12.57;;;10.10;;
7875;SDS011;69649;53.712;9.680;2023-04-24T11:55:06;16.30;;;12.17;;
7875;SDS011;69649;53.712;9.680;2023-04-24T11:57:54;10.67;;;9.00;;
7875;SDS011;69649;53.712;9.680;2023-04-24T12:00:28;8.20;;;7.13;;
7875;SDS011;69649;53.712;9.680;2023-04-24T12:03:08;11.23;;;9.73;;
7875;SDS011;69649;53.712;9.680;2023-04-24T12:05:36;10.93;;;8.87;;
7875;SDS011;69649;53.712;9.680;2023-04-24T12:08:04;12.30;;;9.07;;
7875;SDS011;69649;53.712;9.680;2023-04-24T12:10:31;12.30;;;9.33;;
7875;SDS011;69649;53.712;9.680;2023-04-24T12:12:58;8.90;;;7.67;;
7875;SDS011;69649;53.712;9.680;2023-04-24T12:15:25;10.33;;;8.73;;
7875;SDS011;69649;53.712;9.680;2023-04-24T12:17:53;8.53;;;7.20;;
7875;SDS011;69649;53.712;9.680;2023-04-24T12:20:29;9.97;;;8.97;;
7875;SDS011;69649;53.712;9.680;2023-04-24T12:22:59;9.23;;;7.40;;
7875;SDS011;69649;53.712;9.680;2023-04-24T12:25:29;9.97;;;7.17;;
7875;SDS011;69649;53.712;9.680;2023-04-24T12:30:34;7.80;;;6.27;;
7875;SDS011;69649;53.712;9.680;2023-04-24T12:33:03;8.40;;;5.77;;
7875;SDS011;69649;53.712;9.680;2023-04-24T12:35:30;8.13;;;7.33;;
7875;SDS011;69649;53.712;9.680;2023-04-24T12:38:44;6.20;;;5.10;;
7875;SDS011;69649;53.712;9.680;2023-04-24T12:40:33;8.23;;;6.97;;
7875;SDS011;69649;53.712;9.680;2023-04-24T12:42:59;8.17;;;7.37;;
7875;SDS011;69649;53.712;9.680;2023-04-24T12:45:25;9.27;;;7.57;;
7875;SDS011;69649;53.712;9.680;2023-04-24T12:47:53;11.80;;;7.50;;
7875;SDS011;69649;53.712;9.680;2023-04-24T12:50:19;8.70;;;7.30;;
7875;SDS011;69649;53.712;9.680;2023-04-24T12:52:45;6.00;;;5.50;;
7875;SDS011;69649;53.712;9.680;2023-04-24T12:55:11;7.00;;;5.93;;
7875;SDS011;69649;53.712;9.680;2023-04-24T12:57:38;7.07;;;6.37;;
7875;SDS011;69649;53.712;9.680;2023-04-24T13:00:06;8.57;;;7.47;;
7875;SDS011;69649;53.712;9.680;2023-04-24T13:02:33;8.53;;;7.70;;
7875;SDS011;69649;53.712;9.680;2023-04-24T13:05:00;7.93;;;7.07;;
7875;SDS011;69649;53.712;9.680;2023-04-24T13:07:26;6.93;;;5.80;;
7875;SDS011;69649;53.712;9.680;2023-04-24T13:09:54;8.50;;;6.13;;
7875;SDS011;69649;53.712;9.680;2023-04-24T13:12:20;7.07;;;6.27;;
7875;SDS011;69649;53.712;9.680;2023-04-24T13:14:49;7.90;;;5.63;;
7875;SDS011;69649;53.712;9.680;2023-04-24T13:17:14;7.17;;;6.43;;
7875;SDS011;69649;53.712;9.680;2023-04-24T13:19:41;7.97;;;7.20;;
7875;SDS011;69649;53.712;9.680;2023-04-24T13:22:09;6.67;;;6.07;;
7875;SDS011;69649;53.712;9.680;2023-04-24T13:24:36;4.77;;;3.87;;
7875;SDS011;69649;53.712;9.680;2023-04-24T13:27:02;5.63;;;5.07;;
7875;SDS011;69649;53.712;9.680;2023-04-24T13:29:29;7.70;;;7.00;;
7875;SDS011;69649;53.712;9.680;2023-04-24T13:31:55;7.43;;;6.70;;
7875;SDS011;69649;53.712;9.680;2023-04-24T13:34:21;7.73;;;6.93;;
7875;SDS011;69649;53.712;9.680;2023-04-24T13:36:50;7.23;;;6.53;;
7875;SDS011;69649;53.712;9.680;2023-04-24T13:39:16;7.50;;;6.77;;
7875;SDS011;69649;53.712;9.680;2023-04-24T13:41:42;8.10;;;7.37;;
7875;SDS011;69649;53.712;9.680;2023-04-24T13:44:08;7.60;;;6.90;;
7875;SDS011;69649;53.712;9.680;2023-04-24T13:46:34;7.90;;;5.80;;
7875;SDS011;69649;53.712;9.680;2023-04-24T13:49:01;7.53;;;6.73;;
7875;SDS011;69649;53.712;9.680;2023-04-24T13:51:29;6.80;;;6.17;;
7875;SDS011;69649;53.712;9.680;2023-04-24T13:53:55;6.30;;;5.70;;
7875;SDS011;69649;53.712;9.680;2023-04-24T13:56:21;7.83;;;7.13;;
7875;SDS011;69649;53.712;9.680;2023-04-24T13:58:48;8.03;;;7.20;;
7875;SDS011;69649;53.712;9.680;2023-04-24T14:01:14;8.63;;;7.17;;
7875;SDS011;69649;53.712;9.680;2023-04-24T14:03:41;6.83;;;5.80;;
7875;SDS011;69649;53.712;9.680;2023-04-24T14:06:07;7.60;;;6.67;;
7875;SDS011;69649;53.712;9.680;2023-04-24T14:08:33;6.73;;;6.03;;
7875;SDS011;69649;53.712;9.680;2023-04-24T14:10:58;8.30;;;6.30;;
7875;SDS011;69649;53.712;9.680;2023-04-24T14:13:24;7.17;;;6.50;;
7875;SDS011;69649;53.712;9.680;2023-04-24T14:15:51;7.23;;;6.53;;
7875;SDS011;69649;53.712;9.680;2023-04-24T14:18:18;5.47;;;5.00;;
7875;SDS011;69649;53.712;9.680;2023-04-24T14:20:44;8.67;;;7.77;;
7875;SDS011;69649;53.712;9.680;2023-04-24T14:23:10;8.17;;;7.37;;
7875;SDS011;69649;53.712;9.680;2023-04-24T14:25:36;4.83;;;4.33;;
7875;SDS011;69649;53.712;9.680;2023-04-24T14:28:02;8.43;;;7.70;;
7875;SDS011;69649;53.712;9.680;2023-04-24T14:30:28;7.80;;;6.47;;
7875;SDS011;69649;53.712;9.680;2023-04-24T14:32:54;7.30;;;6.70;;
7875;SDS011;69649;53.712;9.680;2023-04-24T14:35:20;7.30;;;6.67;;
7875;SDS011;69649;53.712;9.680;2023-04-24T14:37:46;7.90;;;7.20;;
7875;SDS011;69649;53.712;9.680;2023-04-24T14:40:13;7.47;;;6.77;;
7875;SDS011;69649;53.712;9.680;2023-04-24T14:42:39;6.90;;;6.20;;
7875;SDS011;69649;53.712;9.680;2023-04-24T14:45:06;6.73;;;4.97;;
7875;SDS011;69649;53.712;9.680;2023-04-24T14:47:33;8.07;;;7.03;;
7875;SDS011;69649;53.712;9.680;2023-04-24T14:49:59;5.90;;;5.30;;
7875;SDS011;69649;53.712;9.680;2023-04-24T14:52:25;5.73;;;5.23;;
7875;SDS011;69649;53.712;9.680;2023-04-24T14:54:51;5.30;;;4.80;;
7875;SDS011;69649;53.712;9.680;2023-04-24T14:57:17;3.60;;;3.20;;
7875;SDS011;69649;53.712;9.680;2023-04-24T14:59:43;4.80;;;4.40;;
7875;SDS011;69649;53.712;9.680;2023-04-24T15:02:09;3.90;;;3.60;;
7875;SDS011;69649;53.712;9.680;2023-04-24T15:04:35;4.80;;;4.40;;
7875;SDS011;69649;53.712;9.680;2023-04-24T15:07:01;4.20;;;3.80;;
7875;SDS011;69649;53.712;9.680;2023-04-24T15:09:27;4.40;;;4.00;;
7875;SDS011;69649;53.712;9.680;2023-04-24T15:11:53;4.93;;;4.53;;
7875;SDS011;69649;53.712;9.680;2023-04-24T15:14:19;7.10;;;4.80;;
7875;SDS011;69649;53.712;9.680;2023-04-24T15:16:45;4.70;;;4.20;;
7875;SDS011;69649;53.712;9.680;2023-04-24T15:19:10;5.13;;;4.53;;
7875;SDS011;69649;53.712;9.680;2023-04-24T15:21:37;5.60;;;4.00;;
7875;SDS011;69649;53.712;9.680;2023-04-24T15:24:04;5.50;;;5.10;;
7875;SDS011;69649;53.712;9.680;2023-04-24T15:26:30;3.73;;;3.37;;